createdAt,value
2023-02-25T00:02:32.337Z,8.19
2023-02-25T00:09:34.201Z,7.95
2023-02-25T00:16:35.911Z,8.02
2023-02-25T00:23:37.581Z,8.05
2023-02-25T00:30:39.517Z,8.06
2023-02-25T00:37:41.189Z,7.64
2023-02-25T00:44:50.117Z,7.37
2023-02-25T00:51:51.645Z,7.41
2023-02-25T00:58:53.671Z,7.30
2023-02-25T01:05:55.236Z,7.18
2023-02-25T01:12:56.775Z,7.24
2023-02-25T01:19:58.374Z,7.20
2023-02-25T01:27:01.324Z,7.19
2023-02-25T01:34:03.281Z,7.05
2023-02-25T01:41:04.851Z,7.17
2023-02-25T01:48:10.072Z,7.25
2023-02-25T01:55:11.613Z,7.24
2023-02-25T02:02:14.660Z,7.41
2023-02-25T02:09:24.453Z,7.18
2023-02-25T02:16:32.012Z,7.16
2023-02-25T02:24:04.457Z,7.27
2023-02-25T02:31:21.235Z,7.37
2023-02-25T02:38:36.082Z,7.42
2023-02-25T02:46:01.161Z,7.34
2023-02-25T02:53:10.949Z,7.24
2023-02-25T03:00:13.873Z,7.33
2023-02-25T03:07:17.842Z,7.33
2023-02-25T03:14:20.955Z,7.46
2023-02-25T03:21:25.307Z,7.46
2023-02-25T03:28:32.228Z,7.21
2023-02-25T03:35:34.447Z,7.34
2023-02-25T03:42:36.042Z,7.23
2023-02-25T03:49:50.842Z,7.04
2023-02-25T03:56:52.600Z,7.07
2023-02-25T04:03:54.784Z,7.13
2023-02-25T04:10:57.567Z,7.08
2023-02-25T04:17:59.234Z,7.25
2023-02-25T04:25:01.117Z,7.02
2023-02-25T04:32:02.846Z,7.16
2023-02-25T04:39:05.038Z,7.15
2023-02-25T04:46:06.641Z,7.02
2023-02-25T04:53:08.216Z,7.09
2023-02-25T05:00:16.138Z,6.87
2023-02-25T05:07:17.930Z,6.68
2023-02-25T05:14:19.485Z,6.91
2023-02-25T05:21:22.786Z,6.77
2023-02-25T05:28:24.380Z,6.97
2023-02-25T05:35:25.905Z,7.02
2023-02-25T05:42:28.266Z,6.93
2023-02-25T05:49:29.797Z,6.88
2023-02-25T05:56:32.351Z,7.02
2023-02-25T06:03:34.136Z,6.89
2023-02-25T06:10:38.444Z,6.86
2023-02-25T06:17:40.350Z,6.76
2023-02-25T06:24:41.873Z,6.78
2023-02-25T06:31:43.630Z,6.73
2023-02-25T06:38:45.977Z,6.81
2023-02-25T06:45:47.589Z,6.68
2023-02-25T06:52:49.153Z,6.31
2023-02-25T06:59:50.700Z,6.48
2023-02-25T07:06:52.248Z,6.19
2023-02-25T07:13:53.818Z,6.31
2023-02-25T07:20:58.027Z,6.39
2023-02-25T07:27:59.763Z,6.34
2023-02-25T07:35:01.653Z,6.43
2023-02-25T07:42:03.245Z,6.35
2023-02-25T07:49:04.867Z,6.52
2023-02-25T07:56:06.963Z,6.33
2023-02-25T08:03:08.553Z,6.55
2023-02-25T08:10:10.675Z,6.72
2023-02-25T08:17:13.158Z,6.75
2023-02-25T08:24:15.062Z,6.42
2023-02-25T08:31:16.891Z,6.29
2023-02-25T08:38:19.687Z,6.33
2023-02-25T08:45:21.844Z,6.41
2023-02-25T08:52:23.476Z,6.35
2023-02-25T08:59:25.051Z,6.36
2023-02-25T09:06:30.466Z,6.62
2023-02-25T09:13:31.981Z,6.42
2023-02-25T09:20:34.657Z,6.27
2023-02-25T09:27:36.701Z,6.35
2023-02-25T09:34:38.604Z,6.43
2023-02-25T09:41:50.008Z,6.30
2023-02-25T09:48:57.738Z,6.37
2023-02-25T09:55:59.325Z,6.61
2023-02-25T10:03:07.153Z,6.52
2023-02-25T10:10:13.448Z,6.97
2023-02-25T10:17:33.722Z,7.28
2023-02-25T10:24:44.161Z,7.33
2023-02-25T10:31:45.984Z,6.87
2023-02-25T10:38:49.779Z,7.05
2023-02-25T10:45:56.568Z,6.90
2023-02-25T10:53:05.882Z,6.77
2023-02-25T11:00:44.239Z,7.32
2023-02-25T11:07:47.546Z,7.49
2023-02-25T11:14:49.088Z,7.80
2023-02-25T11:21:50.716Z,7.72
2023-02-25T11:28:52.281Z,7.59
2023-02-25T11:35:57.657Z,7.41
2023-02-25T11:43:05.059Z,7.71
2023-02-25T11:50:18.226Z,7.66
2023-02-25T11:57:58.517Z,7.90
2023-02-25T12:05:17.806Z,8.17
2023-02-25T12:12:41.411Z,8.04
2023-02-25T12:20:08.935Z,7.93
2023-02-25T12:28:04.292Z,7.59
2023-02-25T12:35:30.292Z,7.40
2023-02-25T12:42:53.825Z,7.58
2023-02-25T12:50:24.672Z,7.97
2023-02-25T12:57:43.370Z,7.49
2023-02-25T13:05:03.714Z,7.25
2023-02-25T13:12:19.574Z,7.39
2023-02-25T13:19:47.380Z,7.18
2023-02-25T13:27:27.592Z,6.33
2023-02-25T13:34:32.295Z,6.80
2023-02-25T13:41:38.636Z,6.66
2023-02-25T13:48:50.244Z,7.15
2023-02-25T13:56:01.062Z,7.03
2023-02-25T14:03:41.208Z,7.02
2023-02-25T14:10:51.413Z,6.94
2023-02-25T14:18:23.092Z,6.91
2023-02-25T14:25:43.059Z,6.81
2023-02-25T14:32:47.582Z,6.44
2023-02-25T14:40:01.211Z,6.82
2023-02-25T14:47:10.391Z,6.78
2023-02-25T14:54:11.870Z,6.79
2023-02-25T15:01:40.559Z,6.99
2023-02-25T15:09:00.700Z,6.68
2023-02-25T15:16:35.480Z,6.72
2023-02-25T15:23:50.477Z,6.65
2023-02-25T15:31:04.078Z,6.48
2023-02-25T15:38:08.491Z,6.41
2023-02-25T15:45:28.468Z,6.63
2023-02-25T15:52:49.561Z,6.59
2023-02-25T15:59:57.436Z,6.35
2023-02-25T16:07:00.149Z,6.39
2023-02-25T16:14:23.702Z,6.07
2023-02-25T16:21:44.204Z,6.21
2023-02-25T16:29:10.928Z,5.57
2023-02-25T16:36:34.192Z,5.63
2023-02-25T16:43:39.154Z,5.42
2023-02-25T16:50:40.684Z,5.53
2023-02-25T16:57:42.225Z,5.68
2023-02-25T17:04:51.115Z,5.73
2023-02-25T17:11:54.777Z,5.44
2023-02-25T17:19:06.523Z,5.39
2023-02-25T17:26:09.747Z,5.40
2023-02-25T17:33:22.044Z,5.37
2023-02-25T17:40:25.565Z,5.62
2023-02-25T17:47:28.929Z,5.70
2023-02-25T17:54:35.709Z,5.27
2023-02-25T18:01:46.464Z,5.51
2023-02-25T18:08:51.670Z,5.38
2023-02-25T18:16:33.418Z,5.37
2023-02-25T18:23:34.971Z,5.34
2023-02-25T18:30:36.536Z,5.23
2023-02-25T18:37:38.124Z,5.07
2023-02-25T18:44:39.652Z,4.97
2023-02-25T18:51:41.198Z,4.97
2023-02-25T18:58:42.888Z,5.21
2023-02-25T19:05:44.408Z,4.90
2023-02-25T19:12:48.519Z,4.90
2023-02-25T19:19:50.053Z,4.73
2023-02-25T19:26:51.624Z,4.78
2023-02-25T19:33:53.234Z,4.94
2023-02-25T19:40:54.782Z,4.95
2023-02-25T19:47:56.527Z,4.94
2023-02-25T19:54:58.048Z,5.00
2023-02-25T20:01:59.627Z,4.99
2023-02-25T20:09:02.187Z,4.97
2023-02-25T20:16:04.623Z,4.94
2023-02-25T20:23:06.828Z,4.93
2023-02-25T20:30:12.235Z,4.76
2023-02-25T20:37:17.333Z,5.11
2023-02-25T20:44:18.966Z,4.69
2023-02-25T20:51:20.778Z,4.60
2023-02-25T20:58:22.323Z,4.67
2023-02-25T21:05:23.850Z,4.81
2023-02-25T21:12:25.409Z,4.54
2023-02-25T21:19:27.956Z,4.46
2023-02-25T21:26:29.542Z,4.63
2023-02-25T21:33:31.216Z,4.78
2023-02-25T21:40:33.636Z,4.37
2023-02-25T21:47:35.185Z,4.72
2023-02-25T21:54:36.855Z,4.62
2023-02-25T22:01:40.436Z,4.91
2023-02-25T22:08:43.219Z,4.75
2023-02-25T22:15:48.146Z,4.73
2023-02-25T22:22:50.070Z,4.44
2023-02-25T22:29:51.635Z,4.63
2023-02-25T22:36:53.692Z,4.59
2023-02-25T22:43:55.441Z,4.47
2023-02-25T22:50:56.973Z,4.59
2023-02-25T22:57:58.581Z,4.64
2023-02-25T23:05:00.546Z,4.56
2023-02-25T23:12:02.045Z,4.41
2023-02-25T23:19:04.192Z,4.40
2023-02-25T23:26:07.286Z,4.48
2023-02-25T23:33:09.108Z,4.58
2023-02-25T23:40:11.864Z,4.63
2023-02-25T23:47:13.405Z,4.62
2023-02-25T23:54:16.995Z,4.56
